Yessentuki, Russia
Current Conditions -  °F | °C
As of 3:30 PM on Friday 24 Oct 2014 (Local Time) from URMM Reporting Station
Drizzle Drizzle  
Wind Chill: 24°   Ceiling: 400
Heat Index: 34°   Visibility: 6mi
Dew Point: 34°   Wind: 13mph
Humidity: 100%   Direction: 100°E
Pressure: 30.18"   Gusts: 18mph
Location:  44.04°N, 42.85°E
Report Text: URMM 241230Z 10006G08MPS 9999 -DZ OVC004 01/01 Q1022 R12/190160NOSIG RMK MT OBSC QFE738/0984
Loading
Personal Weather Stations






























Interactive Weather Map
Tropical Storm Tracking
New forecast layout! Learn more

10-Day Weather Forecast

Advertisements
Track Severe Weather on mobile